Flight APN100X

  • Submitted By: Krzysztof H. Blaszkow
  • Departure Airport: Warszawa Chopina (EPWA)
  • Arrival Airport: Gdansk im. Lecha Walesy (EPGD)
  • Aircraft: ATR 72-500 (SP-RYD)
  • Flight Time: 01.25.05
  • Date Submitted: 01/28/2017
  • Status: Accepted
Flight Details
Gross Revenue:
(70 load / € 55.00 per unit
€ 3,850.00
Fuel Cost:
(697.625 fuel used @ 0.45 / unit)
€ 313.93

Additional Log Information:

View Log

[20:13] - Flight 1 ATR 72-500 House Livery
[20:13] - Flight APN100X is ready to depart EPWA with a final destination of EPGD.
[20:13] - Parking Brake Applied
[20:13] - Beacon Light ON
[20:13] - Boarding
[20:13] - ADF1 - 305.0
[20:13] - ADF2 - 371.0
[20:13] - NAV1 - 113.40
[20:13] - NAV2 - 110.30
[20:13] - COM1 - 122.80
[20:13] - COM2 - 125.27
[20:13] - Transponder - 4536
[20:15] - COM1 - 120.45
[20:17] - COM1 - 118.30
[20:20] - Transponder - 4553
[20:22] - Navigation Lights ON 3AGL
[20:22] - Logo Lights ON 3AGL
[20:22] - Taxi Lights ON 3AGL
[20:23] - Parking Brake Released
[20:23] - Pushing Back from the gate
[20:24] - Engine 1 Started
[20:26] - Flaps to position 1
[20:26] - Engine 2 Started
[20:27] - Parking Brake Applied
[20:29] - Parking Brake Released
[20:31] - Taxiing to Runway
[20:35] - Landing Lights ON 3AGL
[20:35] - Strobe Lights ON 3AGL
[20:35] - Taxi Lights OFF 3AGL
[20:37] - Taking Off with 70 passengers on board
[20:37] - Take off at 132kts, with a pitch of 3deg and 5276lbs of fuel on board
[20:37] - Wind Heading 126 | Wind Speed 7kts | Temperature -2 deg C
[20:37] - METAR Departure: EPWA 282000Z 12009KT 8000 BKN008 M02/M03 Q1025 NOSIG

[20:37] - Gear up at 282AGL
[20:37] - Flaps to position 0 at 663ft and 150kts
[20:37] - Climbing to TOC
[20:39] - COM1 - 122.80
[20:41] - AutoPilot Engaged at 7182AGL
[20:43] - Landing Lights OFF 9947AGL
[20:46] - NAV1 - 116.10
[20:51] - TOC reached
[20:51] - Cruise started
[21:03] - COM2 - 123.22
[21:13] - TOD reached
[21:13] - Descending to destination
[21:15] - Overspeed! 348kts, 19761AGL
[21:15] - Overspeed corrected at 19501AGL
[21:23] - Landing Shortly
[21:24] - Landing Lights ON 4482AGL
[21:31] - Flaps to position 1 at 1798ft and 182kts
[21:31] - Gear down at 1182AGL
[21:31] - AutoPilot Disengaged at 820AGL
[21:31] - Flaps to position 2 at 1155ft and 146kts
[21:32] - Landed at -195fpm. With 3874lbs of fuel onboard and a pitch angle of 1deg.
[21:32] - Wind Heading 151 | Wind Speed 9kts | Temperature -1 deg C
[21:32] - METAR Arrival: EPGD 282100Z 15010KT 4400 BR NSC M02/M07 Q1022

[21:32] - Flaps to position 1
[21:32] - Flaps to position 0
[21:33] - Taxiing to Gate
[21:34] - Landing Lights OFF 6AGL
[21:34] - Taxi Lights ON 6AGL
[21:34] - Strobe Lights OFF 6AGL
[21:38] - Parking Brake Applied
[21:38] - Arrived safely at EPGD. We hope you enjoyed your flight!
[21:38] - Taxi Lights OFF 6AGL
[21:38] - Engine 1 Stopped
[21:38] - Engine 2 Stopped
[21:39] - Flight 1 ATR 72-500 House Livery
[21:39] - MaxSim Rate: 1x
[21:39] - SiouxAcars ver: 1.0.1.2

Route Map